Morses Line, Vermont
Current Conditions -  °F | °C
As of 11:15 AM on Saturday 20 Dec 2014 (Local Time) from KFSO Reporting Station
Clear Clear  
Wind Chill: 20°   Ceiling: Unl
Heat Index: 20°   Visibility: 10mi
Dew Point: 16°   Wind: 0mph
Humidity: 83%   Direction: NA
Pressure: 30.33"   Gusts: NA
Location:  44.9656°N, 72.8975°W
Report Text: KFSO 201615Z AUTO 00000KT 10SM CLR M07/M09 A3033 RMK AO2 T10661090
Loading
Personal Weather Stations






























Interactive Weather Map New forecast layout! Learn more

10-Day Weather Forecast

Advertisements
Track Severe Weather on mobile